Olympus — WBC2104 — position and weather

sailwx.info

Track history (hours):
 
Tides and Currents Weather Stations Pressure Air Temp Water Temp Dewpoint Dewpoint Depression Visibility Wind Speed Wind Dir Waves Ship Positions

Olympus

Owner: OLYMPUS SPORTS INC, MOREHEAD CITY, NC. More information available from US FCC via Universal Licensing System and Coast Guard Vessel Documentation Center.

Last reported at 2018-Jul-20 18:46 UTC. Time now 2018-Jul-22 00:53 UTC.
Position N 34°43' W 076°43'.

Length 20 m.

Type: Diving. MMSI: 367140020.

Date/timePositionNaut miles runAvg speedWind from/ knotsBaromVisibWave heightAir tempDewpointWater temp
2018-Jul-20 18:46N 34°43' W 076°43'0 0.0
2018-Jul-20 18:25N 34°43' W 076°43'0 0.0
2018-Jul-20 17:58N 34°43' W 076°43'0 0.0
2018-Jul-20 17:28N 34°43' W 076°43'0 0.0
2018-Jul-20 16:58N 34°43' W 076°43'0 0.0
2018-Jul-20 16:28N 34°43' W 076°43'0 0.0
2018-Jul-20 15:58N 34°43' W 076°43'0 0.0
2018-Jul-20 15:28N 34°43' W 076°43'0 0.0
2018-Jul-20 14:58N 34°43' W 076°43'3 6.6
2018-Jul-20 14:30N 34°40' W 076°41'6 2.1
2018-Jul-20 11:48N 34°37' W 076°46'415.2
2018-Jul-20 11:30N 34°39' W 076°42'4 7.3
2018-Jul-20 11:00N 34°43' W 076°42'1 1.1
2018-Jul-20 10:30N 34°43' W 076°43'0 0.0
2018-Jul-20 10:00N 34°43' W 076°43'0 0.0
2018-Jul-20 09:30N 34°43' W 076°43'0 0.0
2018-Jul-20 09:00N 34°43' W 076°43'0 0.0
2018-Jul-20 08:30N 34°43' W 076°43'0 0.0
2018-Jul-20 08:00N 34°43' W 076°43'0 0.0
2018-Jul-20 07:30N 34°43' W 076°43'0 0.0
2018-Jul-20 07:00N 34°43' W 076°43'0 0.0
2018-Jul-20 06:30N 34°43' W 076°43'0 0.0
2018-Jul-20 06:00N 34°43' W 076°43'0 0.0
2018-Jul-20 05:27N 34°43' W 076°43'0 0.0
2018-Jul-20 05:00N 34°43' W 076°43'0 0.0
2018-Jul-20 04:30N 34°43' W 076°43'0 0.0
2018-Jul-20 04:00N 34°43' W 076°43'0 0.0
2018-Jul-20 03:30N 34°43' W 076°43'0 0.0
2018-Jul-20 03:00N 34°43' W 076°43'0 0.0
2018-Jul-20 02:30N 34°43' W 076°43'0 0.0
2018-Jul-20 02:00N 34°43' W 076°43'0 0.0
2018-Jul-20 01:30N 34°43' W 076°43'0 0.0
2018-Jul-20 00:57N 34°43' W 076°43'0 0.0
2018-Jul-20 00:30N 34°43' W 076°43'0 0.0
2018-Jul-20 00:00N 34°43' W 076°43'0 0.0
2018-Jul-19 23:30N 34°43' W 076°43'0 0.0
2018-Jul-19 23:00N 34°43' W 076°43'0 0.0
2018-Jul-19 22:30N 34°43' W 076°43'0 0.0
2018-Jul-19 22:00N 34°43' W 076°43'0 0.0
2018-Jul-19 21:30N 34°43' W 076°43'0 0.0
2018-Jul-19 21:00N 34°43' W 076°43'0 0.0
2018-Jul-19 20:30N 34°43' W 076°43'0 0.0
2018-Jul-19 20:00N 34°43' W 076°43'0 0.0
2018-Jul-19 19:28N 34°43' W 076°43'0 0.0
2018-Jul-19 19:00N 34°43' W 076°43'0 0.0
2018-Jul-19 18:30N 34°43' W 076°43'3 5.1
2018-Jul-19 18:00N 34°42' W 076°40'7 1.2
2018-Jul-19 11:52N 34°36' W 076°47'617.6
2018-Jul-19 11:30N 34°40' W 076°40'4 7.3
2018-Jul-19 11:01N 34°43' W 076°43'0 0.1
2018-Jul-19 10:28N 34°43' W 076°43'0 0.0
2018-Jul-19 09:58N 34°43' W 076°43'0 0.0
2018-Jul-19 09:28N 34°43' W 076°43'0 0.0
2018-Jul-19 08:58N 34°43' W 076°43'0 0.0
2018-Jul-19 08:28N 34°43' W 076°43'0 0.0
2018-Jul-19 07:58N 34°43' W 076°43'0 0.0
2018-Jul-19 07:28N 34°43' W 076°43'0 0.0
2018-Jul-19 06:58N 34°43' W 076°43'0 0.0
2018-Jul-19 06:28N 34°43' W 076°43'0 0.0
2018-Jul-19 05:58N 34°43' W 076°43'0 0.0
2018-Jul-19 05:28N 34°43' W 076°43'0 0.0
2018-Jul-19 04:58N 34°43' W 076°43'0 0.0
2018-Jul-19 04:28N 34°43' W 076°43'0 0.0
2018-Jul-19 03:58N 34°43' W 076°43'0 0.0
2018-Jul-19 03:28N 34°43' W 076°43'0 0.0
2018-Jul-19 02:58N 34°43' W 076°43'0 0.0
2018-Jul-19 02:28N 34°43' W 076°43'0 0.0
2018-Jul-19 01:58N 34°43' W 076°43'0 0.0
2018-Jul-19 01:28N 34°43' W 076°43'0 0.0
2018-Jul-19 00:58N 34°43' W 076°43'0 0.0
2018-Jul-19 00:28N 34°43' W 076°43'0 0.0
2018-Jul-18 23:58N 34°43' W 076°43'0 0.0
2018-Jul-18 23:28N 34°43' W 076°43'0 0.0
2018-Jul-18 22:58N 34°43' W 076°43'0 0.0
2018-Jul-18 22:28N 34°43' W 076°43'0 0.0
2018-Jul-18 21:58N 34°43' W 076°43'0 0.0
2018-Jul-18 21:28N 34°43' W 076°43'0 0.0
2018-Jul-18 20:58N 34°43' W 076°43'1 2.1
2018-Jul-18 20:28N 34°43' W 076°42'510.9
2018-Jul-18 20:01N 34°38' W 076°44'2 0.5
2018-Jul-18 14:57N 34°37' W 076°46'614.4
2018-Jul-18 14:31N 34°41' W 076°40'3 3.3
2018-Jul-18 13:29N 34°43' W 076°43'0 0.0
2018-Jul-18 12:59N 34°43' W 076°43'0 0.0
2018-Jul-18 12:29N 34°43' W 076°43'0 0.0
2018-Jul-18 11:59N 34°43' W 076°43'0 0.0
2018-Jul-18 11:29N 34°43' W 076°43'0 0.0
2018-Jul-18 10:29N 34°43' W 076°43'0 0.0
2018-Jul-18 09:59N 34°43' W 076°43'0 0.0
2018-Jul-18 09:29N 34°43' W 076°43'0 0.0
2018-Jul-18 08:59N 34°43' W 076°43'0 0.0
2018-Jul-18 08:29N 34°43' W 076°43'0 0.0
2018-Jul-18 07:59N 34°43' W 076°43'0 0.0
2018-Jul-18 07:29N 34°43' W 076°43'0 0.0
2018-Jul-18 06:59N 34°43' W 076°43'0 0.0
2018-Jul-18 06:29N 34°43' W 076°43'0 0.0
2018-Jul-18 05:59N 34°43' W 076°43'0 0.0
2018-Jul-18 05:29N 34°43' W 076°43'0 0.0
2018-Jul-18 04:59N 34°43' W 076°43'0 0.0
2018-Jul-18 04:29N 34°43' W 076°43'0 0.0
2018-Jul-18 03:59N 34°43' W 076°43'0 0.0
2018-Jul-18 03:29N 34°43' W 076°43'0 0.0
2018-Jul-18 02:59N 34°43' W 076°43'0 0.0
2018-Jul-18 02:29N 34°43' W 076°43'0 0.0
2018-Jul-18 01:59N 34°43' W 076°43'0 0.0
2018-Jul-18 01:29N 34°43' W 076°43'0 0.0
2018-Jul-18 00:59N 34°43' W 076°43'0 0.0
2018-Jul-18 00:29N 34°43' W 076°43'0 0.0
2018-Jul-17 23:59N 34°43' W 076°43'0 0.0
2018-Jul-17 23:29N 34°43' W 076°43'0 0.0
2018-Jul-17 22:59N 34°43' W 076°43'0 0.0
2018-Jul-17 22:29N 34°43' W 076°43'0 0.0
2018-Jul-17 21:59N 34°43' W 076°43'0 0.0
2018-Jul-17 21:29N 34°43' W 076°43'0 0.0
2018-Jul-17 20:59N 34°43' W 076°43'0 0.0
2018-Jul-17 20:29N 34°43' W 076°43'0 0.0
2018-Jul-17 19:59N 34°43' W 076°43'0 0.0
2018-Jul-17 19:29N 34°43' W 076°43'0 0.0
2018-Jul-17 18:59N 34°43' W 076°43'0 0.0
2018-Jul-17 18:29N 34°43' W 076°43'0 0.0
2018-Jul-17 17:59N 34°43' W 076°43'0 0.0
2018-Jul-17 17:29N 34°43' W 076°43'0 0.0
2018-Jul-17 16:59N 34°43' W 076°43'0 0.0
2018-Jul-17 16:29N 34°43' W 076°43'0 0.0
2018-Jul-17 15:59N 34°43' W 076°43'0 0.0
2018-Jul-17 15:29N 34°43' W 076°43'0 0.0
2018-Jul-17 14:59N 34°43' W 076°43'0 0.0
2018-Jul-17 14:30N 34°43' W 076°43'4 7.5
2018-Jul-17 14:01N 34°40' W 076°42'6 2.5
2018-Jul-17 11:32N 34°36' W 076°48'015.5
2018-Jul-17 11:30N 34°36' W 076°48'715.2
2018-Jul-17 11:01N 34°40' W 076°40'4 6.5
2018-Jul-17 10:28N 34°43' W 076°43'0 0.0
2018-Jul-17 09:58N 34°43' W 076°43'0 0.0
2018-Jul-17 09:28N 34°43' W 076°43'0 0.0
2018-Jul-17 08:58N 34°43' W 076°43'0 0.0
2018-Jul-17 08:28N 34°43' W 076°43'0 0.0
2018-Jul-17 07:58N 34°43' W 076°43'0 0.0
2018-Jul-17 07:28N 34°43' W 076°43'0 0.0
2018-Jul-17 06:58N 34°43' W 076°43'0 0.0
2018-Jul-17 06:28N 34°43' W 076°43'0 0.0
2018-Jul-17 05:58N 34°43' W 076°43'0 0.0
2018-Jul-17 05:28N 34°43' W 076°43'0 0.0
2018-Jul-17 04:58N 34°43' W 076°43'0 0.0
2018-Jul-17 04:28N 34°43' W 076°43'0 0.0
2018-Jul-17 03:58N 34°43' W 076°43'0 0.0
2018-Jul-17 03:28N 34°43' W 076°43'0 0.0
2018-Jul-17 02:58N 34°43' W 076°43'0 0.0
2018-Jul-17 02:19N 34°43' W 076°43'0 0.0
2018-Jul-17 01:58N 34°43' W 076°43'0 0.0
2018-Jul-17 01:28N 34°43' W 076°43'0 0.0
2018-Jul-17 00:58N 34°43' W 076°43'0 0.0
2018-Jul-17 00:28N 34°43' W 076°43'0 0.0
2018-Jul-16 23:28N 34°43' W 076°43'0 0.0
2018-Jul-16 22:58N 34°43' W 076°43'0 0.0
2018-Jul-16 22:28N 34°43' W 076°43'0 0.0
2018-Jul-16 21:58N 34°43' W 076°43'0 0.0
2018-Jul-16 21:28N 34°43' W 076°43'0 0.0
2018-Jul-16 20:58N 34°43' W 076°43'0 0.0
2018-Jul-16 20:28N 34°43' W 076°43'0 0.0
2018-Jul-16 19:58N 34°43' W 076°43'0 0.0
2018-Jul-16 19:28N 34°43' W 076°43'0 0.0
2018-Jul-16 19:00N 34°43' W 076°43'4 7.1
2018-Jul-16 18:30N 34°40' W 076°40'1017.5
2018-Jul-16 17:57N 34°31' W 076°41'1 0.2
2018-Jul-16 11:59N 34°32' W 076°40'815.6
2018-Jul-16 11:30N 34°39' W 076°40'4 7.8
2018-Jul-16 11:00N 34°43' W 076°42'0 0.8
2018-Jul-16 10:28N 34°43' W 076°43'0 0.0
2018-Jul-16 09:58N 34°43' W 076°43'0 0.0
2018-Jul-16 09:28N 34°43' W 076°43'0 0.0
2018-Jul-16 08:58N 34°43' W 076°43'0 0.0
2018-Jul-16 08:28N 34°43' W 076°43'0 0.0
2018-Jul-16 07:58N 34°43' W 076°43'0 0.0
2018-Jul-16 07:28N 34°43' W 076°43'0 0.0
2018-Jul-16 06:58N 34°43' W 076°43'0 0.0
2018-Jul-16 06:28N 34°43' W 076°43'0 0.0
2018-Jul-16 05:58N 34°43' W 076°43'0 0.0
2018-Jul-16 05:28N 34°43' W 076°43'0 0.0
2018-Jul-16 04:58N 34°43' W 076°43'0 0.0
2018-Jul-16 04:28N 34°43' W 076°43'0 0.0
2018-Jul-16 03:58N 34°43' W 076°43'0 0.0
2018-Jul-16 03:28N 34°43' W 076°43'0 0.0
2018-Jul-16 02:58N 34°43' W 076°43'0 0.0
2018-Jul-16 02:28N 34°43' W 076°43'0 0.0
2018-Jul-16 01:58N 34°43' W 076°43'0 0.0
2018-Jul-16 01:28N 34°43' W 076°43'0 0.0
2018-Jul-16 00:58N 34°43' W 076°43'0 0.0
2018-Jul-16 00:28N 34°43' W 076°43'0 0.0
2018-Jul-15 23:58N 34°43' W 076°43'0 0.0
2018-Jul-15 23:28N 34°43' W 076°43'0 1.0
2018-Jul-15 23:00N 34°43' W 076°42'611.6
2018-Jul-15 22:30N 34°38' W 076°45'4 1.6
2018-Jul-15 20:11N 34°35' W 076°49'318.7
2018-Jul-15 20:00N 34°37' W 076°45'612.2
2018-Jul-15 19:30N 34°43' W 076°41'1 2.2
2018-Jul-15 18:58N 34°43' W 076°43'0 0.0
2018-Jul-15 18:28N 34°43' W 076°43'1 1.4
2018-Jul-15 18:00N 34°43' W 076°42'715.2
2018-Jul-15 17:30N 34°37' W 076°36'2 0.4
2018-Jul-15 11:27N 34°35' W 076°35'818.0
2018-Jul-15 11:00N 34°42' W 076°40'3 5.1
2018-Jul-15 10:30N 34°43' W 076°43'0 0.0
2018-Jul-15 10:00N 34°43' W 076°43'0 0.0
2018-Jul-15 09:30N 34°43' W 076°43'0 0.0
2018-Jul-15 09:00N 34°43' W 076°43'0 0.0
2018-Jul-15 08:30N 34°43' W 076°43'0 0.0
2018-Jul-15 08:00N 34°43' W 076°43'0 0.0
2018-Jul-15 07:30N 34°43' W 076°43'0 0.0
2018-Jul-15 06:57N 34°43' W 076°43'0 0.0
2018-Jul-15 06:30N 34°43' W 076°43'0 0.0
2018-Jul-15 06:00N 34°43' W 076°43'0 0.0
2018-Jul-15 05:30N 34°43' W 076°43'0 0.0
2018-Jul-15 05:00N 34°43' W 076°43'0 0.0
2018-Jul-15 04:30N 34°43' W 076°43'0 0.0
2018-Jul-15 04:00N 34°43' W 076°43'0 0.0
2018-Jul-15 03:30N 34°43' W 076°43'0 0.0
2018-Jul-15 03:00N 34°43' W 076°43'0 0.0
2018-Jul-15 02:30N 34°43' W 076°43'0 0.0
2018-Jul-15 02:00N 34°43' W 076°43'0 0.0
2018-Jul-15 01:30N 34°43' W 076°43'0 0.0
2018-Jul-15 01:00N 34°43' W 076°43'0 0.0
2018-Jul-15 00:30N 34°43' W 076°43'0 0.0
2018-Jul-15 00:00N 34°43' W 076°43'0 0.0
2018-Jul-14 23:27N 34°43' W 076°43'0 0.0
2018-Jul-14 23:00N 34°43' W 076°43'0 0.0
2018-Jul-14 22:30N 34°43' W 076°43'0 0.0
2018-Jul-14 22:00N 34°43' W 076°43'0 0.0
2018-Jul-14 21:30N 34°43' W 076°43'0 0.0
2018-Jul-14 21:00N 34°43' W 076°43'0 0.0
2018-Jul-14 20:30N 34°43' W 076°43'0 0.0
2018-Jul-14 20:00N 34°43' W 076°43'0 0.0
2018-Jul-14 19:29N 34°43' W 076°43'0 0.0
2018-Jul-14 18:59N 34°43' W 076°43'3 5.5
2018-Jul-14 18:30N 34°42' W 076°40'7 1.1
2018-Jul-14 11:50N 34°34' W 076°40'618.4
2018-Jul-14 11:30N 34°41' W 076°40'3 6.9
2018-Jul-14 11:00N 34°43' W 076°43'0 0.0
2018-Jul-14 10:29N 34°43' W 076°43'0 0.0
2018-Jul-14 09:59N 34°43' W 076°43'0 0.0
2018-Jul-14 09:29N 34°43' W 076°43'0 0.0
2018-Jul-14 08:59N 34°43' W 076°43'0 0.0
2018-Jul-14 08:29N 34°43' W 076°43'0 0.0
2018-Jul-14 07:59N 34°43' W 076°43'0 0.0
2018-Jul-14 07:29N 34°43' W 076°43'0 0.0
2018-Jul-14 06:59N 34°43' W 076°43'0 0.0
2018-Jul-14 06:29N 34°43' W 076°43'0 0.0
2018-Jul-14 05:59N 34°43' W 076°43'0 0.0
2018-Jul-14 05:29N 34°43' W 076°43'0 0.0
2018-Jul-14 04:59N 34°43' W 076°43'0 0.0
2018-Jul-14 04:29N 34°43' W 076°43'0 0.0
2018-Jul-14 03:59N 34°43' W 076°43'0 0.0
2018-Jul-14 03:29N 34°43' W 076°43'0 0.0
2018-Jul-14 02:59N 34°43' W 076°43'0 0.0
2018-Jul-14 02:29N 34°43' W 076°43'0 0.0
2018-Jul-14 01:59N 34°43' W 076°43'0 0.0
2018-Jul-14 01:29N 34°43' W 076°43'0 0.0
2018-Jul-14 00:59N 34°43' W 076°43'0 0.0
2018-Jul-14 00:29N 34°43' W 076°43'0 0.0
2018-Jul-13 23:59N 34°43' W 076°43'0 0.0
2018-Jul-13 23:29N 34°43' W 076°43'0 0.0
2018-Jul-13 22:59N 34°43' W 076°43'0 0.0
2018-Jul-13 22:29N 34°43' W 076°43'0 0.0
2018-Jul-13 21:56N 34°43' W 076°43'0 0.0
2018-Jul-13 21:29N 34°43' W 076°43'0 0.0
2018-Jul-13 20:56N 34°43' W 076°43'0 0.0
2018-Jul-13 20:29N 34°43' W 076°43'0 0.0
2018-Jul-13 19:59N 34°43' W 076°43'0 0.0
2018-Jul-13 19:30N 34°43' W 076°43'0 0.2
2018-Jul-13 18:58N 34°43' W 076°43'3 6.8
2018-Jul-13 18:30N 34°41' W 076°40'7 1.1
2018-Jul-13 11:43N 34°34' W 076°40'418.2
2018-Jul-13 11:30N 34°37' W 076°40'611.5
2018-Jul-13 11:00N 34°43' W 076°42'1 1.4
2018-Jul-13 10:30N 34°43' W 076°43'0 0.0
2018-Jul-13 10:00N 34°43' W 076°43'0 0.0
2018-Jul-12 19:32N 34°43' W 076°43'0 0.0
2018-Jul-12 19:29N 34°43' W 076°43'0 0.0
2018-Jul-12 18:59N 34°43' W 076°43'0 0.8
2018-Jul-12 18:30N 34°43' W 076°42'4 8.6
2018-Jul-12 18:00N 34°39' W 076°43'4 0.7
2018-Jul-12 12:00N 34°36' W 076°47'612.0
2018-Jul-12 11:29N 34°40' W 076°41'4 8.1
2018-Jul-12 11:00N 34°43' W 076°43'0 0.4
2018-Jul-12 10:28N 34°43' W 076°43'0 0.0
2018-Jul-12 09:58N 34°43' W 076°43'0 0.0
2018-Jul-12 09:25N 34°43' W 076°43'0 0.0
2018-Jul-12 08:58N 34°43' W 076°43'0 0.0
2018-Jul-12 08:28N 34°43' W 076°43'0 0.0
2018-Jul-12 07:58N 34°43' W 076°43'0 0.0
2018-Jul-12 07:28N 34°43' W 076°43'0 0.0
2018-Jul-12 06:58N 34°43' W 076°43'0 0.0
2018-Jul-12 06:28N 34°43' W 076°43'0 0.0
2018-Jul-12 05:58N 34°43' W 076°43'0 0.0
2018-Jul-12 05:28N 34°43' W 076°43'0 0.0
2018-Jul-12 04:58N 34°43' W 076°43'0 0.0
2018-Jul-12 04:28N 34°43' W 076°43'0 0.0
2018-Jul-12 03:55N 34°43' W 076°43'0 0.0
2018-Jul-12 03:28N 34°43' W 076°43'0 0.0
2018-Jul-12 02:58N 34°43' W 076°43'0 0.0
2018-Jul-12 02:28N 34°43' W 076°43'0 0.0
2018-Jul-12 01:58N 34°43' W 076°43'0 0.0
2018-Jul-12 01:28N 34°43' W 076°43'0 0.0
2018-Jul-12 00:58N 34°43' W 076°43'0 0.0
2018-Jul-12 00:28N 34°43' W 076°43'0 0.0
2018-Jul-11 23:58N 34°43' W 076°43'0 0.0
2018-Jul-11 23:28N 34°43' W 076°43'0 0.0
2018-Jul-11 22:49N 34°43' W 076°43'0 0.0
2018-Jul-11 22:19N 34°43' W 076°43'0 0.0
2018-Jul-11 21:58N 34°43' W 076°43'0 0.0
2018-Jul-11 21:28N 34°43' W 076°43'0 0.0
2018-Jul-11 20:58N 34°43' W 076°43'0 0.0
2018-Jul-11 20:28N 34°43' W 076°43'0 0.0
2018-Jul-11 20:00N 34°43' W 076°43'4 7.4
2018-Jul-11 19:30N 34°39' W 076°43'816.1
2018-Jul-11 19:00N 34°34' W 076°50'1 1.6
2018-Jul-11 18:29N 34°34' W 076°51'0 0.0
2018-Jul-11 17:56N 34°34' W 076°51'0 0.0
2018-Jul-11 17:23N 34°34' W 076°51'0 0.0
2018-Jul-11 16:59N 34°34' W 076°51'0 0.2
2018-Jul-11 16:30N 34°34' W 076°51'0 0.2
2018-Jul-11 15:58N 34°34' W 076°51'3 1.4
2018-Jul-11 14:12N 34°35' W 076°49'315.8
2018-Jul-11 14:00N 34°37' W 076°46'713.3
2018-Jul-11 13:30N 34°43' W 076°41'0 0.4
2018-Jul-11 13:00N 34°43' W 076°42'612.2
2018-Jul-11 12:30N 34°38' W 076°46'2 3.7
2018-Jul-11 11:58N 34°36' W 076°47'613.5
2018-Jul-11 11:30N 34°39' W 076°41'4 7.2
2018-Jul-11 10:59N 34°43' W 076°42'0 0.7
2018-Jul-11 10:28N 34°43' W 076°43'0 0.0
2018-Jul-11 09:58N 34°43' W 076°43'  
Track history (hours):
 
Tides and Currents Weather Stations Pressure Air Temp Water Temp Dewpoint Dewpoint Depression Visibility Wind Speed Wind Dir Waves Ship Positions

Olympus

Owner: OLYMPUS SPORTS INC, MOREHEAD CITY, NC. More information available from US FCC via Universal Licensing System and Coast Guard Vessel Documentation Center.

Last reported at 2018-Jul-20 18:46 UTC. Time now 2018-Jul-22 00:53 UTC.
Position N 34°43' W 076°43'.

Length 20 m.

Type: Diving. MMSI: 367140020.

Date/timePositionNaut miles runAvg speedWind from/ knotsBaromVisibWave heightAir tempDewpointWater temp
2018-Jul-20 18:46N 34°43' W 076°43'0 0.0
2018-Jul-20 18:25N 34°43' W 076°43'0 0.0
2018-Jul-20 17:58N 34°43' W 076°43'0 0.0
2018-Jul-20 17:28N 34°43' W 076°43'0 0.0
2018-Jul-20 16:58N 34°43' W 076°43'0 0.0
2018-Jul-20 16:28N 34°43' W 076°43'0 0.0
2018-Jul-20 15:58N 34°43' W 076°43'0 0.0
2018-Jul-20 15:28N 34°43' W 076°43'0 0.0
2018-Jul-20 14:58N 34°43' W 076°43'3 6.6
2018-Jul-20 14:30N 34°40' W 076°41'6 2.1
2018-Jul-20 11:48N 34°37' W 076°46'415.2
2018-Jul-20 11:30N 34°39' W 076°42'4 7.3
2018-Jul-20 11:00N 34°43' W 076°42'1 1.1
2018-Jul-20 10:30N 34°43' W 076°43'0 0.0
2018-Jul-20 10:00N 34°43' W 076°43'0 0.0
2018-Jul-20 09:30N 34°43' W 076°43'0 0.0
2018-Jul-20 09:00N 34°43' W 076°43'0 0.0
2018-Jul-20 08:30N 34°43' W 076°43'0 0.0
2018-Jul-20 08:00N 34°43' W 076°43'0 0.0
2018-Jul-20 07:30N 34°43' W 076°43'0 0.0
2018-Jul-20 07:00N 34°43' W 076°43'0 0.0
2018-Jul-20 06:30N 34°43' W 076°43'0 0.0
2018-Jul-20 06:00N 34°43' W 076°43'0 0.0
2018-Jul-20 05:27N 34°43' W 076°43'0 0.0
2018-Jul-20 05:00N 34°43' W 076°43'0 0.0
2018-Jul-20 04:30N 34°43' W 076°43'0 0.0
2018-Jul-20 04:00N 34°43' W 076°43'0 0.0
2018-Jul-20 03:30N 34°43' W 076°43'0 0.0
2018-Jul-20 03:00N 34°43' W 076°43'0 0.0
2018-Jul-20 02:30N 34°43' W 076°43'0 0.0
2018-Jul-20 02:00N 34°43' W 076°43'0 0.0
2018-Jul-20 01:30N 34°43' W 076°43'0 0.0
2018-Jul-20 00:57N 34°43' W 076°43'0 0.0
2018-Jul-20 00:30N 34°43' W 076°43'0 0.0
2018-Jul-20 00:00N 34°43' W 076°43'0 0.0
2018-Jul-19 23:30N 34°43' W 076°43'0 0.0
2018-Jul-19 23:00N 34°43' W 076°43'0 0.0
2018-Jul-19 22:30N 34°43' W 076°43'0 0.0
2018-Jul-19 22:00N 34°43' W 076°43'0 0.0
2018-Jul-19 21:30N 34°43' W 076°43'0 0.0
2018-Jul-19 21:00N 34°43' W 076°43'0 0.0
2018-Jul-19 20:30N 34°43' W 076°43'0 0.0
2018-Jul-19 20:00N 34°43' W 076°43'0 0.0
2018-Jul-19 19:28N 34°43' W 076°43'0 0.0
2018-Jul-19 19:00N 34°43' W 076°43'0 0.0
2018-Jul-19 18:30N 34°43' W 076°43'3 5.1
2018-Jul-19 18:00N 34°42' W 076°40'7 1.2
2018-Jul-19 11:52N 34°36' W 076°47'617.6
2018-Jul-19 11:30N 34°40' W 076°40'4 7.3
2018-Jul-19 11:01N 34°43' W 076°43'0 0.1
2018-Jul-19 10:28N 34°43' W 076°43'0 0.0
2018-Jul-19 09:58N 34°43' W 076°43'0 0.0
2018-Jul-19 09:28N 34°43' W 076°43'0 0.0
2018-Jul-19 08:58N 34°43' W 076°43'0 0.0
2018-Jul-19 08:28N 34°43' W 076°43'0 0.0
2018-Jul-19 07:58N 34°43' W 076°43'0 0.0
2018-Jul-19 07:28N 34°43' W 076°43'0 0.0
2018-Jul-19 06:58N 34°43' W 076°43'0 0.0
2018-Jul-19 06:28N 34°43' W 076°43'0 0.0
2018-Jul-19 05:58N 34°43' W 076°43'0 0.0
2018-Jul-19 05:28N 34°43' W 076°43'0 0.0
2018-Jul-19 04:58N 34°43' W 076°43'0 0.0
2018-Jul-19 04:28N 34°43' W 076°43'0 0.0
2018-Jul-19 03:58N 34°43' W 076°43'0 0.0
2018-Jul-19 03:28N 34°43' W 076°43'0 0.0
2018-Jul-19 02:58N 34°43' W 076°43'0 0.0
2018-Jul-19 02:28N 34°43' W 076°43'0 0.0
2018-Jul-19 01:58N 34°43' W 076°43'0 0.0
2018-Jul-19 01:28N 34°43' W 076°43'0 0.0
2018-Jul-19 00:58N 34°43' W 076°43'0 0.0
2018-Jul-19 00:28N 34°43' W 076°43'0 0.0
2018-Jul-18 23:58N 34°43' W 076°43'0 0.0
2018-Jul-18 23:28N 34°43' W 076°43'0 0.0
2018-Jul-18 22:58N 34°43' W 076°43'0 0.0
2018-Jul-18 22:28N 34°43' W 076°43'0 0.0
2018-Jul-18 21:58N 34°43' W 076°43'0 0.0
2018-Jul-18 21:28N 34°43' W 076°43'0 0.0
2018-Jul-18 20:58N 34°43' W 076°43'1 2.1
2018-Jul-18 20:28N 34°43' W 076°42'510.9
2018-Jul-18 20:01N 34°38' W 076°44'2 0.5
2018-Jul-18 14:57N 34°37' W 076°46'614.4
2018-Jul-18 14:31N 34°41' W 076°40'3 3.3
2018-Jul-18 13:29N 34°43' W 076°43'0 0.0
2018-Jul-18 12:59N 34°43' W 076°43'0 0.0
2018-Jul-18 12:29N 34°43' W 076°43'0 0.0
2018-Jul-18 11:59N 34°43' W 076°43'0 0.0
2018-Jul-18 11:29N 34°43' W 076°43'0 0.0
2018-Jul-18 10:29N 34°43' W 076°43'0 0.0
2018-Jul-18 09:59N 34°43' W 076°43'0 0.0
2018-Jul-18 09:29N 34°43' W 076°43'0 0.0
2018-Jul-18 08:59N 34°43' W 076°43'0 0.0
2018-Jul-18 08:29N 34°43' W 076°43'0 0.0
2018-Jul-18 07:59N 34°43' W 076°43'0 0.0
2018-Jul-18 07:29N 34°43' W 076°43'0 0.0
2018-Jul-18 06:59N 34°43' W 076°43'0 0.0
2018-Jul-18 06:29N 34°43' W 076°43'0 0.0
2018-Jul-18 05:59N 34°43' W 076°43'0 0.0
2018-Jul-18 05:29N 34°43' W 076°43'0 0.0
2018-Jul-18 04:59N 34°43' W 076°43'0 0.0
2018-Jul-18 04:29N 34°43' W 076°43'0 0.0
2018-Jul-18 03:59N 34°43' W 076°43'0 0.0
2018-Jul-18 03:29N 34°43' W 076°43'0 0.0
2018-Jul-18 02:59N 34°43' W 076°43'0 0.0
2018-Jul-18 02:29N 34°43' W 076°43'0 0.0
2018-Jul-18 01:59N 34°43' W 076°43'0 0.0
2018-Jul-18 01:29N 34°43' W 076°43'0 0.0
2018-Jul-18 00:59N 34°43' W 076°43'0 0.0
2018-Jul-18 00:29N 34°43' W 076°43'0 0.0
2018-Jul-17 23:59N 34°43' W 076°43'0 0.0
2018-Jul-17 23:29N 34°43' W 076°43'0 0.0
2018-Jul-17 22:59N 34°43' W 076°43'0 0.0
2018-Jul-17 22:29N 34°43' W 076°43'0 0.0
2018-Jul-17 21:59N 34°43' W 076°43'0 0.0
2018-Jul-17 21:29N 34°43' W 076°43'0 0.0
2018-Jul-17 20:59N 34°43' W 076°43'0 0.0
2018-Jul-17 20:29N 34°43' W 076°43'0 0.0
2018-Jul-17 19:59N 34°43' W 076°43'0 0.0
2018-Jul-17 19:29N 34°43' W 076°43'0 0.0
2018-Jul-17 18:59N 34°43' W 076°43'0 0.0
2018-Jul-17 18:29N 34°43' W 076°43'0 0.0
2018-Jul-17 17:59N 34°43' W 076°43'0 0.0
2018-Jul-17 17:29N 34°43' W 076°43'0 0.0
2018-Jul-17 16:59N 34°43' W 076°43'0 0.0
2018-Jul-17 16:29N 34°43' W 076°43'0 0.0
2018-Jul-17 15:59N 34°43' W 076°43'0 0.0
2018-Jul-17 15:29N 34°43' W 076°43'0 0.0
2018-Jul-17 14:59N 34°43' W 076°43'0 0.0
2018-Jul-17 14:30N 34°43' W 076°43'4 7.5
2018-Jul-17 14:01N 34°40' W 076°42'6 2.5
2018-Jul-17 11:32N 34°36' W 076°48'015.5
2018-Jul-17 11:30N 34°36' W 076°48'715.2
2018-Jul-17 11:01N 34°40' W 076°40'4 6.5
2018-Jul-17 10:28N 34°43' W 076°43'0 0.0
2018-Jul-17 09:58N 34°43' W 076°43'0 0.0
2018-Jul-17 09:28N 34°43' W 076°43'0 0.0
2018-Jul-17 08:58N 34°43' W 076°43'0 0.0
2018-Jul-17 08:28N 34°43' W 076°43'0 0.0
2018-Jul-17 07:58N 34°43' W 076°43'0 0.0
2018-Jul-17 07:28N 34°43' W 076°43'0 0.0
2018-Jul-17 06:58N 34°43' W 076°43'0 0.0
2018-Jul-17 06:28N 34°43' W 076°43'0 0.0
2018-Jul-17 05:58N 34°43' W 076°43'0 0.0
2018-Jul-17 05:28N 34°43' W 076°43'0 0.0
2018-Jul-17 04:58N 34°43' W 076°43'0 0.0
2018-Jul-17 04:28N 34°43' W 076°43'0 0.0
2018-Jul-17 03:58N 34°43' W 076°43'0 0.0
2018-Jul-17 03:28N 34°43' W 076°43'0 0.0
2018-Jul-17 02:58N 34°43' W 076°43'0 0.0
2018-Jul-17 02:19N 34°43' W 076°43'0 0.0
2018-Jul-17 01:58N 34°43' W 076°43'0 0.0
2018-Jul-17 01:28N 34°43' W 076°43'0 0.0
2018-Jul-17 00:58N 34°43' W 076°43'0 0.0
2018-Jul-17 00:28N 34°43' W 076°43'0 0.0
2018-Jul-16 23:28N 34°43' W 076°43'0 0.0
2018-Jul-16 22:58N 34°43' W 076°43'0 0.0
2018-Jul-16 22:28N 34°43' W 076°43'0 0.0
2018-Jul-16 21:58N 34°43' W 076°43'0 0.0
2018-Jul-16 21:28N 34°43' W 076°43'0 0.0
2018-Jul-16 20:58N 34°43' W 076°43'0 0.0
2018-Jul-16 20:28N 34°43' W 076°43'0 0.0
2018-Jul-16 19:58N 34°43' W 076°43'0 0.0
2018-Jul-16 19:28N 34°43' W 076°43'0 0.0
2018-Jul-16 19:00N 34°43' W 076°43'4 7.1
2018-Jul-16 18:30N 34°40' W 076°40'1017.5
2018-Jul-16 17:57N 34°31' W 076°41'1 0.2
2018-Jul-16 11:59N 34°32' W 076°40'815.6
2018-Jul-16 11:30N 34°39' W 076°40'4 7.8
2018-Jul-16 11:00N 34°43' W 076°42'0 0.8
2018-Jul-16 10:28N 34°43' W 076°43'0 0.0
2018-Jul-16 09:58N 34°43' W 076°43'0 0.0
2018-Jul-16 09:28N 34°43' W 076°43'0 0.0
2018-Jul-16 08:58N 34°43' W 076°43'0 0.0
2018-Jul-16 08:28N 34°43' W 076°43'0 0.0
2018-Jul-16 07:58N 34°43' W 076°43'0 0.0
2018-Jul-16 07:28N 34°43' W 076°43'0 0.0
2018-Jul-16 06:58N 34°43' W 076°43'0 0.0
2018-Jul-16 06:28N 34°43' W 076°43'0 0.0
2018-Jul-16 05:58N 34°43' W 076°43'0 0.0
2018-Jul-16 05:28N 34°43' W 076°43'0 0.0
2018-Jul-16 04:58N 34°43' W 076°43'0 0.0
2018-Jul-16 04:28N 34°43' W 076°43'0 0.0
2018-Jul-16 03:58N 34°43' W 076°43'0 0.0
2018-Jul-16 03:28N 34°43' W 076°43'0 0.0
2018-Jul-16 02:58N 34°43' W 076°43'0 0.0
2018-Jul-16 02:28N 34°43' W 076°43'0 0.0
2018-Jul-16 01:58N 34°43' W 076°43'0 0.0
2018-Jul-16 01:28N 34°43' W 076°43'0 0.0
2018-Jul-16 00:58N 34°43' W 076°43'0 0.0
2018-Jul-16 00:28N 34°43' W 076°43'0 0.0
2018-Jul-15 23:58N 34°43' W 076°43'0 0.0
2018-Jul-15 23:28N 34°43' W 076°43'0 1.0
2018-Jul-15 23:00N 34°43' W 076°42'611.6
2018-Jul-15 22:30N 34°38' W 076°45'4 1.6
2018-Jul-15 20:11N 34°35' W 076°49'318.7
2018-Jul-15 20:00N 34°37' W 076°45'612.2
2018-Jul-15 19:30N 34°43' W 076°41'1 2.2
2018-Jul-15 18:58N 34°43' W 076°43'0 0.0
2018-Jul-15 18:28N 34°43' W 076°43'1 1.4
2018-Jul-15 18:00N 34°43' W 076°42'715.2
2018-Jul-15 17:30N 34°37' W 076°36'2 0.4
2018-Jul-15 11:27N 34°35' W 076°35'818.0
2018-Jul-15 11:00N 34°42' W 076°40'3 5.1
2018-Jul-15 10:30N 34°43' W 076°43'0 0.0
2018-Jul-15 10:00N 34°43' W 076°43'0 0.0
2018-Jul-15 09:30N 34°43' W 076°43'0 0.0
2018-Jul-15 09:00N 34°43' W 076°43'0 0.0
2018-Jul-15 08:30N 34°43' W 076°43'0 0.0
2018-Jul-15 08:00N 34°43' W 076°43'0 0.0
2018-Jul-15 07:30N 34°43' W 076°43'0 0.0
2018-Jul-15 06:57N 34°43' W 076°43'0 0.0
2018-Jul-15 06:30N 34°43' W 076°43'0 0.0
2018-Jul-15 06:00N 34°43' W 076°43'0 0.0
2018-Jul-15 05:30N 34°43' W 076°43'0 0.0
2018-Jul-15 05:00N 34°43' W 076°43'0 0.0
2018-Jul-15 04:30N 34°43' W 076°43'0 0.0
2018-Jul-15 04:00N 34°43' W 076°43'0 0.0
2018-Jul-15 03:30N 34°43' W 076°43'0 0.0
2018-Jul-15 03:00N 34°43' W 076°43'0 0.0
2018-Jul-15 02:30N 34°43' W 076°43'0 0.0
2018-Jul-15 02:00N 34°43' W 076°43'0 0.0
2018-Jul-15 01:30N 34°43' W 076°43'0 0.0
2018-Jul-15 01:00N 34°43' W 076°43'0 0.0
2018-Jul-15 00:30N 34°43' W 076°43'0 0.0
2018-Jul-15 00:00N 34°43' W 076°43'0 0.0
2018-Jul-14 23:27N 34°43' W 076°43'0 0.0
2018-Jul-14 23:00N 34°43' W 076°43'0 0.0
2018-Jul-14 22:30N 34°43' W 076°43'0 0.0
2018-Jul-14 22:00N 34°43' W 076°43'0 0.0
2018-Jul-14 21:30N 34°43' W 076°43'0 0.0
2018-Jul-14 21:00N 34°43' W 076°43'0 0.0
2018-Jul-14 20:30N 34°43' W 076°43'0 0.0
2018-Jul-14 20:00N 34°43' W 076°43'0 0.0
2018-Jul-14 19:29N 34°43' W 076°43'0 0.0
2018-Jul-14 18:59N 34°43' W 076°43'3 5.5
2018-Jul-14 18:30N 34°42' W 076°40'7 1.1
2018-Jul-14 11:50N 34°34' W 076°40'618.4
2018-Jul-14 11:30N 34°41' W 076°40'3 6.9
2018-Jul-14 11:00N 34°43' W 076°43'0 0.0
2018-Jul-14 10:29N 34°43' W 076°43'0 0.0
2018-Jul-14 09:59N 34°43' W 076°43'0 0.0
2018-Jul-14 09:29N 34°43' W 076°43'0 0.0
2018-Jul-14 08:59N 34°43' W 076°43'0 0.0
2018-Jul-14 08:29N 34°43' W 076°43'0 0.0
2018-Jul-14 07:59N 34°43' W 076°43'0 0.0
2018-Jul-14 07:29N 34°43' W 076°43'0 0.0
2018-Jul-14 06:59N 34°43' W 076°43'0 0.0
2018-Jul-14 06:29N 34°43' W 076°43'0 0.0
2018-Jul-14 05:59N 34°43' W 076°43'0 0.0
2018-Jul-14 05:29N 34°43' W 076°43'0 0.0
2018-Jul-14 04:59N 34°43' W 076°43'0 0.0
2018-Jul-14 04:29N 34°43' W 076°43'0 0.0
2018-Jul-14 03:59N 34°43' W 076°43'0 0.0
2018-Jul-14 03:29N 34°43' W 076°43'0 0.0
2018-Jul-14 02:59N 34°43' W 076°43'0 0.0
2018-Jul-14 02:29N 34°43' W 076°43'0 0.0
2018-Jul-14 01:59N 34°43' W 076°43'0 0.0
2018-Jul-14 01:29N 34°43' W 076°43'0 0.0
2018-Jul-14 00:59N 34°43' W 076°43'0 0.0
2018-Jul-14 00:29N 34°43' W 076°43'0 0.0
2018-Jul-13 23:59N 34°43' W 076°43'0 0.0
2018-Jul-13 23:29N 34°43' W 076°43'0 0.0
2018-Jul-13 22:59N 34°43' W 076°43'0 0.0
2018-Jul-13 22:29N 34°43' W 076°43'0 0.0
2018-Jul-13 21:56N 34°43' W 076°43'0 0.0
2018-Jul-13 21:29N 34°43' W 076°43'0 0.0
2018-Jul-13 20:56N 34°43' W 076°43'0 0.0
2018-Jul-13 20:29N 34°43' W 076°43'0 0.0
2018-Jul-13 19:59N 34°43' W 076°43'0 0.0
2018-Jul-13 19:30N 34°43' W 076°43'0 0.2
2018-Jul-13 18:58N 34°43' W 076°43'3 6.8
2018-Jul-13 18:30N 34°41' W 076°40'7 1.1
2018-Jul-13 11:43N 34°34' W 076°40'418.2
2018-Jul-13 11:30N 34°37' W 076°40'611.5
2018-Jul-13 11:00N 34°43' W 076°42'1 1.4
2018-Jul-13 10:30N 34°43' W 076°43'0 0.0
2018-Jul-13 10:00N 34°43' W 076°43'0 0.0
2018-Jul-12 19:32N 34°43' W 076°43'0 0.0
2018-Jul-12 19:29N 34°43' W 076°43'0 0.0
2018-Jul-12 18:59N 34°43' W 076°43'0 0.8
2018-Jul-12 18:30N 34°43' W 076°42'4 8.6
2018-Jul-12 18:00N 34°39' W 076°43'4 0.7
2018-Jul-12 12:00N 34°36' W 076°47'612.0
2018-Jul-12 11:29N 34°40' W 076°41'4 8.1
2018-Jul-12 11:00N 34°43' W 076°43'0 0.4
2018-Jul-12 10:28N 34°43' W 076°43'0 0.0
2018-Jul-12 09:58N 34°43' W 076°43'0 0.0
2018-Jul-12 09:25N 34°43' W 076°43'0 0.0
2018-Jul-12 08:58N 34°43' W 076°43'0 0.0
2018-Jul-12 08:28N 34°43' W 076°43'0 0.0
2018-Jul-12 07:58N 34°43' W 076°43'0 0.0
2018-Jul-12 07:28N 34°43' W 076°43'0 0.0
2018-Jul-12 06:58N 34°43' W 076°43'0 0.0
2018-Jul-12 06:28N 34°43' W 076°43'0 0.0
2018-Jul-12 05:58N 34°43' W 076°43'0 0.0
2018-Jul-12 05:28N 34°43' W 076°43'0 0.0
2018-Jul-12 04:58N 34°43' W 076°43'0 0.0
2018-Jul-12 04:28N 34°43' W 076°43'0 0.0
2018-Jul-12 03:55N 34°43' W 076°43'0 0.0
2018-Jul-12 03:28N 34°43' W 076°43'0 0.0
2018-Jul-12 02:58N 34°43' W 076°43'0 0.0
2018-Jul-12 02:28N 34°43' W 076°43'0 0.0
2018-Jul-12 01:58N 34°43' W 076°43'0 0.0
2018-Jul-12 01:28N 34°43' W 076°43'0 0.0
2018-Jul-12 00:58N 34°43' W 076°43'0 0.0
2018-Jul-12 00:28N 34°43' W 076°43'0 0.0
2018-Jul-11 23:58N 34°43' W 076°43'0 0.0
2018-Jul-11 23:28N 34°43' W 076°43'0 0.0
2018-Jul-11 22:49N 34°43' W 076°43'0 0.0
2018-Jul-11 22:19N 34°43' W 076°43'0 0.0
2018-Jul-11 21:58N 34°43' W 076°43'0 0.0
2018-Jul-11 21:28N 34°43' W 076°43'0 0.0
2018-Jul-11 20:58N 34°43' W 076°43'0 0.0
2018-Jul-11 20:28N 34°43' W 076°43'0 0.0
2018-Jul-11 20:00N 34°43' W 076°43'4 7.4
2018-Jul-11 19:30N 34°39' W 076°43'816.1
2018-Jul-11 19:00N 34°34' W 076°50'1 1.6
2018-Jul-11 18:29N 34°34' W 076°51'0 0.0
2018-Jul-11 17:56N 34°34' W 076°51'0 0.0
2018-Jul-11 17:23N 34°34' W 076°51'0 0.0
2018-Jul-11 16:59N 34°34' W 076°51'0 0.2
2018-Jul-11 16:30N 34°34' W 076°51'0 0.2
2018-Jul-11 15:58N 34°34' W 076°51'3 1.4
2018-Jul-11 14:12N 34°35' W 076°49'315.8
2018-Jul-11 14:00N 34°37' W 076°46'713.3
2018-Jul-11 13:30N 34°43' W 076°41'0 0.4
2018-Jul-11 13:00N 34°43' W 076°42'612.2
2018-Jul-11 12:30N 34°38' W 076°46'2 3.7
2018-Jul-11 11:58N 34°36' W 076°47'613.5
2018-Jul-11 11:30N 34°39' W 076°41'4 7.2
2018-Jul-11 10:59N 34°43' W 076°42'0 0.7
2018-Jul-11 10:28N 34°43' W 076°43'0 0.0
2018-Jul-11 09:58N 34°43' W 076°43'  

Dump ship's entire track history